Terminal Aerodrome Forecast
Issued by NWS Shreveport, LA

Home | Current Version | Previous Version | Text Only | Print | Product List | Glossary On
Versions: 1 2 3 4 5 6 7 8 9 10 11 12 13 14 15 16 17
862
FTUS44 KSHV 242320
TAFMLU
TAF
KMLU 242320Z 2500/2524 20006KT P6SM VCSH FEW035 SCT050
      TEMPO 2500/2501 VRB10G20KT 5SM SHRA BKN045 BKN120
     FM250100 VRB03KT P6SM SCT250
     FM251500 27007KT P6SM SCT250=

USA.gov is the U.S. government's official web portal to all federal, state and local government web resources and services.